createdAt,value
2023-03-11T00:01:44.815Z,1.45
2023-03-11T00:04:48.250Z,1.20
2023-03-11T00:07:52.390Z,1.27
2023-03-11T00:14:05.501Z,1.40
2023-03-11T00:17:08.953Z,1.50
2023-03-11T00:20:19.179Z,1.80
2023-03-11T00:23:23.145Z,1.35
2023-03-11T00:26:26.756Z,1.70
2023-03-11T00:29:31.645Z,1.50
2023-03-11T00:32:35.145Z,1.35
2023-03-11T00:35:38.894Z,1.70
2023-03-11T00:38:42.441Z,1.40
2023-03-11T00:41:46.090Z,1.05
2023-03-11T00:44:50.927Z,1.20
2023-03-11T00:47:54.832Z,1.10
2023-03-11T00:50:58.260Z,1.25
2023-03-11T00:54:01.838Z,1.27
2023-03-11T00:57:05.871Z,1.23
2023-03-11T01:00:14.723Z,1.08
2023-03-11T01:03:18.202Z,0.90
2023-03-11T01:06:21.587Z,1.08
2023-03-11T01:09:25.109Z,1.25
2023-03-11T01:12:28.565Z,1.17
2023-03-11T01:15:36.154Z,1.00
2023-03-11T01:18:39.752Z,0.93
2023-03-11T01:21:44.138Z,1.02
2023-03-11T01:24:47.640Z,1.40
2023-03-11T01:27:51.167Z,1.60
2023-03-11T01:30:56.055Z,1.35
2023-03-11T01:33:59.700Z,1.50
2023-03-11T01:37:03.459Z,1.13
2023-03-11T01:40:10.244Z,1.27
2023-03-11T01:43:49.925Z,1.40
2023-03-11T01:47:36.486Z,1.52
2023-03-11T01:50:44.639Z,1.30
2023-03-11T01:53:48.442Z,1.63
2023-03-11T01:56:53.540Z,1.38
2023-03-11T02:00:05.349Z,1.30
2023-03-11T02:03:17.071Z,1.25
2023-03-11T02:06:23.901Z,1.35
2023-03-11T02:09:27.510Z,1.70
2023-03-11T02:12:36.286Z,1.30
2023-03-11T02:15:40.300Z,1.10
2023-03-11T02:21:48.702Z,1.30
2023-03-11T02:25:02.757Z,1.23
2023-03-11T02:28:12.705Z,1.58
2023-03-11T02:31:16.913Z,1.30
2023-03-11T02:34:29.042Z,1.05
2023-03-11T02:37:32.269Z,1.50
2023-03-11T02:40:51.705Z,1.40
2023-03-11T02:43:57.253Z,1.35
2023-03-11T02:47:02.085Z,1.38
2023-03-11T02:50:06.368Z,1.55
2023-03-11T02:53:10.171Z,1.60
2023-03-11T02:56:13.620Z,1.60
2023-03-11T02:59:18.134Z,1.50
2023-03-11T03:02:21.760Z,1.48
2023-03-11T03:05:25.935Z,1.40
2023-03-11T03:08:29.178Z,1.48
2023-03-11T03:11:32.630Z,1.33
2023-03-11T03:14:37.183Z,1.65
2023-03-11T03:17:40.678Z,1.50
2023-03-11T03:20:44.127Z,1.55
2023-03-11T03:23:47.393Z,1.63
2023-03-11T03:26:50.557Z,1.52
2023-03-11T03:29:55.033Z,1.57
2023-03-11T03:32:58.136Z,1.50
2023-03-11T03:36:01.404Z,1.43
2023-03-11T03:39:05.991Z,1.50
2023-03-11T03:42:09.240Z,1.30
2023-03-11T03:45:14.545Z,1.53
2023-03-11T03:48:17.859Z,1.48
2023-03-11T03:51:21.024Z,1.43
2023-03-11T03:54:24.365Z,1.63
2023-03-11T03:57:29.186Z,1.30
2023-03-11T04:00:34.392Z,1.30
2023-03-11T04:03:39.346Z,1.55
2023-03-11T04:06:43.637Z,1.25
2023-03-11T04:09:47.092Z,1.80
2023-03-11T04:12:50.261Z,1.30
2023-03-11T04:15:54.975Z,1.50
2023-03-11T04:18:58.138Z,1.52
2023-03-11T04:22:01.458Z,1.53
2023-03-11T04:25:05.512Z,1.70
2023-03-11T04:28:08.922Z,1.70
2023-03-11T04:31:13.861Z,1.33
2023-03-11T04:34:17.053Z,2.17
2023-03-11T04:37:20.212Z,1.20
2023-03-11T04:40:23.686Z,1.70
2023-03-11T04:43:26.781Z,1.70
2023-03-11T04:46:31.329Z,1.73
2023-03-11T04:49:34.794Z,1.50
2023-03-11T04:52:37.854Z,1.50
2023-03-11T04:55:41.470Z,1.40
2023-03-11T04:58:44.757Z,1.48
2023-03-11T05:01:49.397Z,1.38
2023-03-11T05:04:52.638Z,1.65
2023-03-11T05:07:56.792Z,1.73
2023-03-11T05:14:03.174Z,1.85
2023-03-11T05:17:08.054Z,2.00
2023-03-11T05:20:13.456Z,1.75
2023-03-11T05:23:18.297Z,1.70
2023-03-11T05:26:21.371Z,1.53
2023-03-11T05:29:26.515Z,1.50
2023-03-11T05:32:31.261Z,1.40
2023-03-11T05:35:34.597Z,1.70
2023-03-11T05:38:38.246Z,1.70
2023-03-11T05:41:41.946Z,1.67
2023-03-11T05:44:45.523Z,1.55
2023-03-11T05:47:49.962Z,1.70
2023-03-11T05:50:53.158Z,1.63
2023-03-11T05:53:57.330Z,2.30
2023-03-11T05:57:00.984Z,2.00
2023-03-11T06:00:07.145Z,2.20
2023-03-11T06:03:11.772Z,1.98
2023-03-11T06:06:15.763Z,1.73
2023-03-11T06:12:22.282Z,1.60
2023-03-11T06:15:25.464Z,1.88
2023-03-11T06:18:30.079Z,1.87
2023-03-11T06:21:33.220Z,1.73
2023-03-11T06:24:36.598Z,2.10
2023-03-11T06:27:40.031Z,2.10
2023-03-11T06:30:43.291Z,2.13
2023-03-11T06:33:49.129Z,2.00
2023-03-11T06:36:52.576Z,1.98
2023-03-11T06:39:56.280Z,1.98
2023-03-11T06:42:59.860Z,2.55
2023-03-11T06:46:10.208Z,2.35
2023-03-11T06:49:14.745Z,2.45
2023-03-11T06:52:18.207Z,2.20
2023-03-11T06:55:22.262Z,2.20
2023-03-11T07:01:29.113Z,2.58
2023-03-11T07:04:34.598Z,2.28
2023-03-11T07:07:38.089Z,1.88
2023-03-11T07:10:41.304Z,2.00
2023-03-11T07:13:45.528Z,2.60
